Terminal Aerodrome Forecast
Issued by NWS

Home | Current Version | Previous Version | Text Only | Print | Product List | Glossary On
Versions: 1 2 3 4 5 6 7 8 9 10 11 12 13 14
000
FTUS44 KCRP 010500
TAFLRD
TAF
KLRD 010530Z 0106/0206 18005KT P6SM FEW008 SCT100 WS020/18030KT
     FM011100 VRB05KT P6SM SCT007
     FM011500 27008KT P6SM BKN150
     FM012000 33009KT P6SM BKN150
     FM020200 01017KT P6SM SCT025=

USA.gov is the U.S. government's official web portal to all federal, state and local government web resources and services.